Etusivu
METAR-TAF:

METAR-TAF

Lentoasemat :

Hagi, Japani

Leveyspiiri: 34-40N, Pituuspiiri: 131-48E, korkeus merenpinnasta: 54 m

Tämänhetkinen sää

Tämä raportti tehtiin 2 tuntia ja 56 minuuttia sitten, kello 10.00 UTC
Tuuli 7 kn lännestä
Lämpötila 15°C
Kosteus 94%
Ilmanpaine 1014 hPa
Näkyvyys 10 km tai enemmän
Muutamia pilviä 3000 ft:n korkeudessa
Hajanaisia pilviä 4000 ft:n korkeudessa
Hajonneita pilviä 7000 ft:n korkeudessa
heikkoja vesikuuroja

METAR: RJOW 131000Z 26007KT 9999 -SHRA FEW030 SCT040 BKN070 15/14 Q1014

Aika: 21:56 (12:56 UTC)


TAF: puuttuu

Säähavainnot ja -ennusteet yli 4000 lentoasemalta (METAR- ja TAF-raportit).

Käytössä olevat sääasemat on merkitty karttaan keltaisilla ja punaisilla pisteillä.

Aseta hiiri pisteen päälle nähdäksesi sääaseman nimen.

Klikkaa sitten nähdäksesi säähavainnot ja -ennusteet.

Kartan vaihtaminen: klikkaa mustalla rastilla varustettuja vihreitä pisteitä, niin voit zoomata sisään; viivalla varustettua vihreää pistettä, niin voit zoomata ulos tai vihreitä nuolia, niin pääset viereisille kartoille.


METAR-TAF: